This is the latest recevied weather packets stored in our database for station/object DL5TW-13. If no packets are shown the sender has not sent any weather packets the latest 10 day(s).
| Time | Temp. | Humidity | Pressure | Rain* | Wind** | Luminosity | Snow |
|---|---|---|---|---|---|---|---|
| 1777793215 | 26.67° C | 30% | 1010.1 hPa | 0 mm | - | - | - |
| 1777792915 | 26.11° C | 31% | 1010.1 hPa | 0 mm | - | - | - |
| 1777792615 | 25.56° C | 32% | 1010.1 hPa | 0 mm | - | - | - |
| 1777792314 | 25° C | 33% | 1010.1 hPa | 0 mm | - | - | - |
| 1777792014 | 24.44° C | 33% | 1010.2 hPa | 0 mm | - | - | - |
| 1777791714 | 23.89° C | 34% | 1010.2 hPa | 0 mm | - | - | - |
| 1777791414 | 23.33° C | 34% | 1010.1 hPa | 0 mm | - | - | - |
| 1777791113 | 23.33° C | 34% | 1010.2 hPa | 0 mm | - | - | - |
| 1777790813 | 23.33° C | 34% | 1010.2 hPa | 0 mm | - | - | - |
| 1777790513 | 23.89° C | 33% | 1010.2 hPa | 0 mm | - | - | - |
| 1777790212 | 24.44° C | 36% | 1010.2 hPa | 0 mm | - | - | - |
| 1777789912 | 24.44° C | 35% | 1010.1 hPa | 0 mm | - | - | - |
| 1777789612 | 23.89° C | 38% | 1010.2 hPa | 0 mm | - | - | - |
| 1777789311 | 23.89° C | 40% | 1010.1 hPa | 0 mm | - | - | - |
| 1777789011 | 23.33° C | 43% | 1010.1 hPa | 0 mm | - | - | - |
| 1777788711 | 22.22° C | 46% | 1009.9 hPa | 0 mm | - | - | - |
| 1777788411 | 21.67° C | 46% | 1010 hPa | 0 mm | - | - | - |
| 1777788110 | 20.56° C | 48% | 1009.9 hPa | 0 mm | - | - | - |
| 1777787810 | 19.44° C | 50% | 1009.9 hPa | 0 mm | - | - | - |
| 1777787510 | 18.89° C | 52% | 1010 hPa | 0 mm | - | - | - |
| 1777787209 | 18.33° C | 53% | 1010.1 hPa | 0 mm | - | - | - |
| 1777786909 | 16.67° C | 57% | 1010 hPa | 0 mm | - | - | - |
| 1777786609 | 16.67° C | 57% | 1010 hPa | 0 mm | - | - | - |
| 1777786309 | 16.11° C | 58% | 1009.9 hPa | 0 mm | - | - | - |
| 1777786008 | 15° C | 60% | 1009.9 hPa | 0 mm | - | - | - |
* Rain latest hour (hover to see other rain measurements)
** Current wind speed in m/s (hover to see current wind gust speed)